Time;durP1;ratioP1;P1;durP2;ratioP2;P2;SDS_P1;SDS_P2;PMS_P1;PMS_P2;Temp;Humidity;BMP_temperature;BMP_pressure;BME280_temperature;BME280_humidity;BME280_pressure;Samples;Min_cycle;Max_cycle;Signal;HPM_P1;HPM_P2
2021/12/15 00:00:21;;;;;;;40.13;19.30;;;;;;;4.28;53.99;100359.06;3363523;29;20048;-72
2021/12/15 00:02:04;;;;;;;42.55;19.60;;;;;;;4.27;54.01;100352.97;3363774;29;20127;-72
2021/12/15 00:03:45;;;;;;;34.58;17.10;;;;;;;4.27;54.00;100352.97;3370261;29;20453;-73
2021/12/15 00:05:27;;;;;;;39.67;18.67;;;;;;;4.25;54.19;100354.91;3373533;29;20040;-72
2021/12/15 00:07:07;;;;;;;34.80;18.13;;;;;;;4.26;53.97;100346.03;3353019;29;20045;-72
2021/12/15 00:08:53;;;;;;;36.15;18.90;;;;;;;4.25;54.08;100354.06;3376659;29;20530;-71
2021/12/15 00:10:34;;;;;;;37.80;18.15;;;;;;;4.24;54.02;100342.69;3364858;29;20036;-73
2021/12/15 00:12:19;;;;;;;37.20;18.27;;;;;;;4.23;54.11;100341.00;3362320;29;20044;-72
2021/12/15 00:14:11;;;;;;;31.10;16.13;;;;;;;4.23;54.09;100338.34;3360928;29;20421;-72
2021/12/15 00:15:54;;;;;;;36.75;18.25;;;;;;;4.20;53.93;100330.72;3361079;29;20070;-73
2021/12/15 00:17:36;;;;;;;37.85;18.95;;;;;;;4.21;54.01;100340.31;3359356;29;20585;-71
2021/12/15 00:19:16;;;;;;;;;;;;;;;4.30;54.00;100334.22;3363654;29;20041;-72
2021/12/15 00:20:57;;;;;;;30.02;15.95;;;;;;;4.21;53.83;100331.56;3363844;29;19934;-71
2021/12/15 00:22:38;;;;;;;31.83;16.92;;;;;;;4.19;53.78;100334.34;3363038;29;20049;-71
2021/12/15 00:24:21;;;;;;;37.17;16.83;;;;;;;4.17;53.99;100333.66;3360393;29;20080;-72
2021/12/15 00:26:03;;;;;;;38.13;17.67;;;;;;;4.13;53.98;100329.59;3364557;29;20051;-72
2021/12/15 00:27:43;;;;;;;29.90;18.27;;;;;;;4.16;54.06;100342.53;3376584;29;20123;-73
2021/12/15 00:29:25;;;;;;;42.28;17.10;;;;;;;4.16;54.01;100332.00;3376729;29;20527;-72
2021/12/15 00:31:06;;;;;;;43.42;19.45;;;;;;;4.15;54.07;100327.66;3376598;29;20044;-71
2021/12/15 00:32:46;;;;;;;28.80;15.40;;;;;;;4.17;54.07;100324.91;3375801;29;20480;-70
2021/12/15 00:34:27;;;;;;;32.45;16.20;;;;;;;4.18;53.90;100311.56;3373264;29;20045;-72
2021/12/15 00:36:08;;;;;;;28.45;16.52;;;;;;;4.20;53.95;100320.16;3362553;29;20070;-71
2021/12/15 00:37:50;;;;;;;39.80;18.42;;;;;;;4.19;53.97;100313.25;3363724;29;20639;-71
2021/12/15 00:39:31;;;;;;;;;;;;;;;4.31;53.94;100319.19;3364002;29;20460;-71
2021/12/15 00:41:12;;;;;;;29.38;15.35;;;;;;;4.25;53.84;100311.84;3362309;29;19924;-73
2021/12/15 00:42:53;;;;;;;31.77;17.05;;;;;;;4.23;53.85;100317.25;3363249;29;20477;-72
2021/12/15 00:44:34;;;;;;;33.28;16.52;;;;;;;4.22;53.69;100312.97;3363150;29;20041;-73
2021/12/15 00:46:15;;;;;;;30.92;15.73;;;;;;;4.25;53.70;100317.97;3362568;29;20092;-71
2021/12/15 00:47:58;;;;;;;33.17;17.70;;;;;;;4.25;53.96;100317.97;3362784;29;20051;-73
2021/12/15 00:49:40;;;;;;;39.10;18.05;;;;;;;4.26;53.89;100324.06;3360411;29;20462;-72
2021/12/15 00:51:20;;;;;;;28.27;16.38;;;;;;;4.27;53.94;100318.66;3363488;29;20508;-71
2021/12/15 00:53:03;;;;;;;34.20;17.02;;;;;;;4.25;53.86;100317.97;3363661;29;20044;-71
2021/12/15 00:54:44;;;;;;;34.20;16.35;;;;;;;4.27;53.93;100320.47;3362968;29;20048;-71
2021/12/15 00:56:25;;;;;;;30.88;16.73;;;;;;;4.27;53.95;100318.66;3363171;29;20044;-72
2021/12/15 00:58:06;;;;;;;34.42;16.75;;;;;;;4.29;53.83;100324.63;3349502;29;20041;-71
2021/12/15 00:59:47;;;;;;;29.05;15.48;;;;;;;4.30;53.92;100320.19;3360981;29;20081;-72
2021/12/15 01:01:28;;;;;;;37.42;18.27;;;;;;;4.29;53.93;100314.09;3362090;29;20123;-72
2021/12/15 01:03:09;;;;;;;33.95;16.67;;;;;;;4.29;53.71;100316.72;3359885;29;20513;-72
2021/12/15 01:04:50;;;;;;;31.10;16.42;;;;;;;4.29;54.03;100303.53;3362742;29;20100;-72
2021/12/15 01:06:31;;;;;;;31.35;15.98;;;;;;;4.30;53.82;100307.81;3361986;29;20041;-72
2021/12/15 01:08:18;;;;;;;32.63;15.68;;;;;;;4.31;53.90;100306.00;3363628;29;20097;-72
2021/12/15 01:10:00;;;;;;;28.30;14.50;;;;;;;4.27;53.92;100302.81;3362272;29;20045;-72
2021/12/15 01:12:04;;;;;;;28.43;14.67;;;;;;;4.31;53.92;100306.88;3359357;29;20041;-73
2021/12/15 01:19:53;;;;;;;30.55;14.75;;;;;;;4.37;53.84;100310.75;3363104;29;20057;-71
2021/12/15 01:21:33;;;;;;;27.38;15.77;;;;;;;4.30;53.88;100286.72;3362654;29;20276;-71
2021/12/15 01:23:17;;;;;;;26.80;14.90;;;;;;;4.38;53.76;100297.41;3363317;29;20104;-71
2021/12/15 01:25:15;;;;;;;31.23;15.43;;;;;;;4.43;53.81;100294.34;3349189;29;20143;-70
2021/12/15 01:26:57;;;;;;;33.40;16.40;;;;;;;4.39;53.87;100287.69;3350153;29;20421;-73
2021/12/15 01:28:38;;;;;;;30.50;14.77;;;;;;;4.40;53.82;100293.81;3336458;29;20042;-71
2021/12/15 01:30:24;;;;;;;35.28;16.88;;;;;;;4.42;53.84;100291.88;3347987;29;20047;-72
2021/12/15 01:32:06;;;;;;;29.05;15.30;;;;;;;4.42;53.98;100286.59;3336670;29;20098;-72
2021/12/15 01:33:46;;;;;;;37.50;19.35;;;;;;;4.42;53.96;100283.94;3348018;29;20120;-72
2021/12/15 01:35:28;;;;;;;31.08;15.98;;;;;;;4.42;53.92;100283.94;3342606;29;20680;-73
2021/12/15 01:37:09;;;;;;;31.50;16.88;;;;;;;4.43;53.84;100282.97;3360284;29;20087;-71
2021/12/15 01:38:51;;;;;;;28.88;16.38;;;;;;;4.44;53.74;100289.91;3362230;29;20045;-71
2021/12/15 01:40:36;;;;;;;32.38;14.93;;;;;;;4.41;53.85;100275.16;3362618;29;20041;-73
2021/12/15 01:42:17;;;;;;;35.08;15.40;;;;;;;4.45;53.88;100283.66;3363375;29;20393;-71
2021/12/15 01:48:07;;;;;;;28.10;12.95;;;;;;;4.46;53.79;100275.59;3363579;29;20041;-72
2021/12/15 01:49:50;;;;;;;25.63;13.95;;;;;;;4.41;53.77;100277.81;3362110;29;20144;-72
2021/12/15 01:51:31;;;;;;;27.65;13.73;;;;;;;4.39;53.77;100266.59;3361484;29;20469;-72
2021/12/15 01:53:12;;;;;;;28.30;14.68;;;;;;;4.37;53.78;100272.00;3348990;29;20041;-71
2021/12/15 01:54:56;;;;;;;25.48;12.77;;;;;;;4.37;53.88;100272.00;3360127;29;20037;-72
2021/12/15 01:56:38;;;;;;;28.30;14.43;;;;;;;4.35;53.85;100276.56;3360389;29;20045;-72
2021/12/15 01:58:18;;;;;;;22.70;12.73;;;;;;;4.37;53.76;100279.91;3359554;29;20041;-72
2021/12/15 02:00:04;;;;;;;25.17;11.45;;;;;;;4.37;53.87;100279.09;3361555;29;20070;-72
2021/12/15 02:01:54;;;;;;;27.77;13.55;;;;;;;4.36;53.90;100275.63;3362812;29;20128;-70
2021/12/15 02:03:36;;;;;;;24.27;12.50;;;;;;;4.36;53.96;100280.91;3362959;29;20444;-71
2021/12/15 02:05:18;;;;;;;23.33;11.07;;;;;;;4.37;53.72;100272.00;3362487;29;20040;-71
2021/12/15 02:07:04;;;;;;;25.55;13.85;;;;;;;4.27;53.78;100260.59;3361184;29;20204;-70
2021/12/15 02:08:45;;;;;;;26.70;12.77;;;;;;;4.40;53.77;100281.44;3359680;29;20436;-71
2021/12/15 02:10:29;;;;;;;24.48;12.60;;;;;;;4.40;53.81;100276.16;3359445;29;20049;-72
2021/12/15 02:12:11;;;;;;;21.70;11.40;;;;;;;4.40;53.70;100275.34;3348800;29;20128;-71
2021/12/15 02:13:55;;;;;;;24.20;11.60;;;;;;;4.27;53.74;100259.78;3358558;29;20196;-71
2021/12/15 02:15:41;;;;;;;25.02;12.25;;;;;;;4.39;53.44;100279.78;3348255;29;20081;-71
2021/12/15 02:17:22;;;;;;;24.17;11.98;;;;;;;4.37;53.80;100279.91;3360953;29;20049;-71
2021/12/15 02:19:03;;;;;;;23.70;14.15;;;;;;;4.34;53.82;100282.84;3361810;29;20469;-71
2021/12/15 02:20:48;;;;;;;26.10;13.55;;;;;;;4.34;53.82;100274.09;3358902;29;20061;-71
2021/12/15 02:22:30;;;;;;;26.88;13.50;;;;;;;4.32;53.85;100276.84;3359845;29;20101;-72
2021/12/15 02:24:11;;;;;;;23.17;12.88;;;;;;;4.36;53.81;100275.63;3361414;29;20520;-72
2021/12/15 02:25:52;;;;;;;26.33;13.30;;;;;;;4.35;53.85;100279.22;3364672;29;20068;-72
2021/12/15 02:27:35;;;;;;;26.48;13.23;;;;;;;4.35;53.70;100273.09;3364313;29;20045;-72
2021/12/15 02:29:20;;;;;;;27.20;13.13;;;;;;;4.34;53.66;100274.09;3361923;29;20599;-71
2021/12/15 02:31:34;;;;;;;23.17;11.98;;;;;;;4.35;53.88;100273.09;3362046;29;20524;-73
2021/12/15 02:33:57;;;;;;;20.80;11.30;;;;;;;4.34;53.74;100269.63;3364737;29;20148;-72
2021/12/15 02:37:19;;;;;;;22.67;11.15;;;;;;;4.33;53.74;100267.13;3363799;29;20588;-71
2021/12/15 02:39:05;;;;;;;21.25;10.65;;;;;;;4.31;53.57;100256.72;3362324;29;20067;-72
2021/12/15 02:40:46;;;;;;;20.25;10.70;;;;;;;4.31;53.74;100267.28;3364057;29;20144;-72
2021/12/15 02:42:34;;;;;;;21.90;9.93;;;;;;;4.31;53.67;100264.66;3364831;29;20084;-72
2021/12/15 02:44:17;;;;;;;20.08;11.50;;;;;;;4.24;53.77;100252.97;3365328;29;20049;-71
2021/12/15 02:45:58;;;;;;;18.30;10.48;;;;;;;4.29;53.76;100258.66;3364689;29;20076;-70
2021/12/15 02:47:39;;;;;;;23.35;12.10;;;;;;;4.29;53.82;100261.31;3364742;29;20648;-71
2021/12/15 02:49:23;;;;;;;18.90;9.35;;;;;;;4.28;53.81;100264.91;3365212;29;20482;-71
2021/12/15 02:51:04;;;;;;;21.40;10.77;;;;;;;4.28;53.56;100264.91;3365282;29;20051;-71
2021/12/15 02:52:45;;;;;;;19.05;10.80;;;;;;;4.26;53.65;100266.88;3365435;29;20517;-71
2021/12/15 02:54:27;;;;;;;23.40;10.88;;;;;;;4.26;53.82;100264.22;3365495;29;20497;-71
2021/12/15 02:56:08;;;;;;;19.80;11.85;;;;;;;4.25;53.59;100275.75;3363715;29;20052;-71
2021/12/15 02:57:49;;;;;;;17.33;9.77;;;;;;;4.23;53.78;100271.56;3364607;29;20123;-71
2021/12/15 02:59:37;;;;;;;17.92;9.57;;;;;;;4.23;53.53;100267.13;3364967;29;20049;-71
2021/12/15 03:01:30;;;;;;;27.95;11.27;;;;;;;4.23;53.63;100264.50;3365314;29;20073;-69
2021/12/15 03:03:52;;;;;;;24.67;10.48;;;;;;;4.23;53.57;100272.41;3365001;29;20133;-70
2021/12/15 03:05:30;;;;;;;;;;;;;;;4.35;53.44;100271.28;3364367;29;20121;-71
2021/12/15 03:07:24;;;;;;;17.77;8.60;;;;;;;4.28;53.54;100270.19;3365388;29;19915;-71
2021/12/15 03:15:15;;;;;;;20.13;9.98;;;;;;;4.27;53.45;100273.81;3365314;29;20572;-71
2021/12/15 03:16:58;;;;;;;27.00;10.85;;;;;;;4.22;53.42;100260.19;3364687;29;20047;-70
2021/12/15 03:18:39;;;;;;;24.48;11.98;;;;;;;4.23;53.51;100255.75;3364507;29;20060;-71
2021/12/15 03:20:20;;;;;;;24.25;11.10;;;;;;;4.18;53.71;100264.06;3364406;29;20073;-71
2021/12/15 03:22:01;;;;;;;25.38;11.57;;;;;;;4.15;53.53;100254.63;3364893;29;20416;-70
2021/12/15 03:23:50;;;;;;;24.40;11.20;;;;;;;4.18;53.82;100257.97;3364724;29;20078;-71
2021/12/15 03:25:31;;;;;;;24.08;12.95;;;;;;;4.17;53.93;100251.03;3364466;29;20302;-71
2021/12/15 03:27:18;;;;;;;30.55;13.55;;;;;;;4.15;53.91;100259.06;3364435;29;20353;-71
2021/12/15 03:35:06;;;;;;;29.42;12.43;;;;;;;4.15;53.95;100259.06;3363213;29;20049;-71
2021/12/15 03:38:42;;;;;;;20.25;12.85;;;;;;;4.17;53.73;100258.94;3364526;29;20136;-71
2021/12/15 03:40:24;;;;;;;;;;;;;;;4.28;53.60;100261.44;3364866;29;20080;-70
2021/12/15 03:42:08;;;;;;;27.23;13.85;;;;;;;4.21;53.64;100257.69;3363786;29;20307;-71
2021/12/15 03:43:49;;;;;;;21.20;12.55;;;;;;;4.19;53.75;100255.19;3364687;29;20182;-71
2021/12/15 03:45:40;;;;;;;26.35;12.20;;;;;;;4.16;53.84;100250.22;3364425;29;20077;-72
2021/12/15 03:47:28;;;;;;;21.48;11.55;;;;;;;4.14;53.94;100245.06;3363591;29;20044;-72
2021/12/15 03:49:09;;;;;;;30.70;13.32;;;;;;;4.15;53.81;100259.91;3364414;29;20068;-73
2021/12/15 03:50:51;;;;;;;28.27;12.98;;;;;;;4.15;53.77;100253.81;3363853;29;20045;-71
2021/12/15 03:52:31;;;;;;;;;;;;;;;4.25;53.64;100252.00;3363623;29;20097;-70
2021/12/15 03:54:12;;;;;;;26.30;11.30;;;;;;;4.20;53.58;100240.19;3364031;29;19928;-72
2021/12/15 03:55:54;;;;;;;25.27;12.35;;;;;;;4.18;53.70;100242.97;3363763;29;20041;-70
2021/12/15 03:57:34;;;;;;;25.02;10.95;;;;;;;4.19;53.81;100243.81;3364101;29;20207;-71
2021/12/15 03:59:18;;;;;;;22.35;12.05;;;;;;;4.20;53.77;100251.59;3364384;29;20041;-70
2021/12/15 04:01:06;;;;;;;21.85;11.63;;;;;;;4.18;53.83;100253.53;3363827;29;20433;-72
2021/12/15 04:02:50;;;;;;;24.38;11.65;;;;;;;4.18;53.90;100240.34;3364098;29;20041;-71
2021/12/15 04:04:31;;;;;;;24.10;11.15;;;;;;;4.19;53.88;100246.47;3364420;29;20037;-70
2021/12/15 04:06:17;;;;;;;23.63;12.18;;;;;;;4.17;53.91;100241.31;3363596;29;20075;-70
2021/12/15 04:07:58;;;;;;;25.33;11.73;;;;;;;4.17;53.89;100246.59;3364544;29;20068;-73
2021/12/15 04:09:39;;;;;;;19.45;10.63;;;;;;;4.13;53.96;100243.41;3363115;29;20059;-71
2021/12/15 04:11:22;;;;;;;21.73;10.82;;;;;;;4.17;53.79;100243.13;3364014;29;20049;-72
2021/12/15 04:13:03;;;;;;;22.17;10.35;;;;;;;4.17;53.95;100243.13;3364340;29;20135;-73
2021/12/15 04:14:53;;;;;;;24.33;12.15;;;;;;;4.18;53.87;100240.34;3363852;29;20066;-73
2021/12/15 04:18:15;;;;;;;20.07;10.37;;;;;;;4.14;53.98;100234.50;3364397;29;20048;-72
2021/12/15 04:20:04;;;;;;;20.42;10.23;;;;;;;4.14;54.02;100239.78;3364236;29;20785;-72
2021/12/15 04:21:44;;;;;;;22.20;8.73;;;;;;;4.13;54.03;100235.50;3364138;29;20060;-73
2021/12/15 04:23:25;;;;;;;19.48;9.52;;;;;;;4.14;53.81;100241.59;3363171;29;20048;-73
2021/12/15 04:25:08;;;;;;;18.80;9.50;;;;;;;4.13;54.14;100229.38;3363620;29;20037;-71
2021/12/15 04:26:50;;;;;;;28.77;10.63;;;;;;;4.13;53.98;100234.63;3363566;29;20186;-72
2021/12/15 04:28:34;;;;;;;23.77;11.52;;;;;;;4.13;53.93;100240.78;3364006;29;20086;-73
2021/12/15 04:30:15;;;;;;;22.70;9.85;;;;;;;4.11;54.07;100228.69;3364002;29;20044;-72
2021/12/15 04:32:03;;;;;;;19.88;10.90;;;;;;;4.13;53.99;100218.81;3363632;29;20049;-72
2021/12/15 04:33:55;;;;;;;20.38;9.80;;;;;;;4.13;54.05;100224.94;3363170;29;20044;-72
2021/12/15 04:35:36;;;;;;;23.08;10.52;;;;;;;4.11;53.95;100226.88;3363366;29;20041;-72
2021/12/15 04:37:16;;;;;;;22.92;10.63;;;;;;;4.09;54.14;100222.72;3363876;29;20605;-73
2021/12/15 04:38:58;;;;;;;21.25;11.60;;;;;;;4.10;54.21;100214.66;3363764;29;20077;-73
2021/12/15 04:40:40;;;;;;;19.65;10.25;;;;;;;4.12;54.01;100217.16;3363892;29;20045;-74
2021/12/15 04:42:23;;;;;;;23.30;9.93;;;;;;;4.09;54.15;100220.91;3363764;29;20184;-73
2021/12/15 04:44:10;;;;;;;30.77;11.60;;;;;;;4.09;54.16;100213.00;3362717;29;20049;-76
2021/12/15 04:45:50;;;;;;;24.23;11.60;;;;;;;4.10;54.09;100211.19;3362588;29;20037;-77
2021/12/15 04:47:31;;;;;;;21.25;10.10;;;;;;;4.11;54.05;100207.59;3361753;29;20037;-74
2021/12/15 04:49:17;;;;;;;21.92;9.15;;;;;;;4.09;53.98;100206.91;3363318;29;20060;-75
2021/12/15 04:50:57;;;;;;;18.27;9.73;;;;;;;4.10;54.18;100211.19;3363621;29;20128;-74
2021/12/15 04:52:38;;;;;;;21.10;9.82;;;;;;;4.05;54.07;100206.34;3363410;29;20083;-76
2021/12/15 04:54:19;;;;;;;26.52;11.65;;;;;;;4.06;54.22;100204.53;3363633;29;20041;-73
2021/12/15 04:56:00;;;;;;;20.27;9.00;;;;;;;4.08;54.26;100207.84;3361715;29;20488;-75
2021/12/15 04:57:41;;;;;;;20.75;10.65;;;;;;;4.06;54.34;100215.91;3363243;29;20045;-75
2021/12/15 04:59:22;;;;;;;15.68;8.70;;;;;;;4.07;54.34;100219.38;3364123;29;20048;-79
2021/12/15 05:01:06;;;;;;;15.50;8.90;;;;;;;4.04;54.28;100211.75;3365112;29;20037;-78
2021/12/15 05:02:47;;;;;;;17.77;8.90;;;;;;;4.03;54.45;100215.38;3364751;29;20304;-80
2021/12/15 05:04:28;;;;;;;22.98;9.23;;;;;;;4.08;54.39;100211.34;3350845;29;20038;-78
2021/12/15 05:06:09;;;;;;;16.30;8.27;;;;;;;4.09;54.36;100212.16;3360715;29;20465;-77
2021/12/15 05:07:51;;;;;;;18.50;9.30;;;;;;;4.10;54.34;100206.75;3362988;29;20055;-78
2021/12/15 05:09:31;;;;;;;20.75;8.63;;;;;;;4.13;54.24;100214.41;3362714;29;20468;-77
2021/12/15 05:11:12;;;;;;;17.70;8.35;;;;;;;4.15;54.27;100212.44;3363025;29;20079;-80
2021/12/15 05:12:54;;;;;;;17.52;9.68;;;;;;;4.15;54.20;100209.78;3363396;29;20103;-77
2021/12/15 05:14:35;;;;;;;21.48;9.70;;;;;;;4.19;53.94;100207.72;3363557;29;20552;-77
2021/12/15 05:16:16;;;;;;;13.95;9.18;;;;;;;4.18;54.25;100206.03;3349367;29;20049;-77
2021/12/15 05:17:57;;;;;;;14.00;8.73;;;;;;;4.10;54.26;100196.19;3359924;29;20548;-79
2021/12/15 05:19:39;;;;;;;16.02;8.43;;;;;;;4.17;54.16;100204.38;3362913;29;20072;-76
2021/12/15 05:21:22;;;;;;;17.80;8.23;;;;;;;4.18;54.27;100206.03;3363927;29;20199;-76
2021/12/15 05:23:03;;;;;;;16.35;8.20;;;;;;;4.17;54.44;100201.75;3363561;29;20048;-75
2021/12/15 05:24:44;;;;;;;17.88;8.88;;;;;;;4.19;54.28;100214.81;3363023;29;20420;-77
2021/12/15 05:26:25;;;;;;;16.10;7.85;;;;;;;4.18;54.27;100216.59;3362786;29;20045;-77
2021/12/15 05:28:06;;;;;;;13.55;7.82;;;;;;;4.18;54.20;100216.59;3363593;29;20436;-75
2021/12/15 05:29:48;;;;;;;16.23;7.88;;;;;;;4.18;54.28;100216.59;3363328;29;20060;-78
2021/12/15 05:31:29;;;;;;;13.75;7.13;;;;;;;4.18;54.27;100215.75;3362763;29;20037;-73
2021/12/15 05:33:09;;;;;;;14.60;7.85;;;;;;;4.15;54.23;100216.88;3362261;29;20109;-74
2021/12/15 05:34:53;;;;;;;16.92;8.85;;;;;;;4.15;54.36;100222.16;3362890;29;20045;-73
2021/12/15 05:36:34;;;;;;;15.63;7.85;;;;;;;4.14;54.25;100216.03;3362997;29;20044;-76
2021/12/15 05:38:17;;;;;;;14.20;7.03;;;;;;;4.14;54.42;100210.78;3363306;29;20048;-74
2021/12/15 05:39:58;;;;;;;12.80;7.80;;;;;;;4.15;54.16;100207.16;3363267;29;20044;-75
2021/12/15 05:41:38;;;;;;;13.80;6.18;;;;;;;4.15;54.40;100209.78;3363038;29;20044;-73
2021/12/15 05:43:19;;;;;;;12.70;7.07;;;;;;;4.17;54.48;100212.28;3363509;29;20056;-76
2021/12/15 05:45:00;;;;;;;11.02;6.57;;;;;;;4.18;54.39;100208.66;3362898;29;20445;-76
2021/12/15 05:46:41;;;;;;;12.80;6.97;;;;;;;4.18;54.42;100195.47;3361361;29;20037;-76
2021/12/15 05:48:22;;;;;;;10.40;6.15;;;;;;;4.18;54.43;100200.75;3363584;29;20048;-75
2021/12/15 05:50:06;;;;;;;13.07;6.15;;;;;;;4.16;54.40;100202.72;3363402;29;20033;-76
2021/12/15 05:51:47;;;;;;;11.50;5.78;;;;;;;4.18;54.40;100192.84;3363882;29;20053;-77
2021/12/15 05:53:28;;;;;;;13.82;7.28;;;;;;;4.17;54.42;100208.84;3363459;29;20057;-77
2021/12/15 05:55:11;;;;;;;13.05;7.10;;;;;;;4.16;54.51;100194.81;3361050;29;20571;-75
2021/12/15 05:56:52;;;;;;;12.43;7.72;;;;;;;4.20;54.62;100206.72;3362529;29;20045;-76
2021/12/15 05:58:33;;;;;;;13.93;6.30;;;;;;;4.21;54.36;100205.78;3364446;29;20051;-77
2021/12/15 06:00:21;;;;;;;14.85;6.43;;;;;;;4.23;54.35;100210.91;3365911;29;20400;-77
2021/12/15 06:02:02;;;;;;;12.50;6.63;;;;;;;4.20;54.42;100198.81;3376006;29;20135;-76
2021/12/15 06:03:44;;;;;;;12.75;7.05;;;;;;;4.20;54.46;100208.53;3365127;29;20057;-77
2021/12/15 06:05:25;;;;;;;12.13;6.63;;;;;;;4.21;54.39;100220.75;3365379;29;20060;-75
2021/12/15 06:07:05;;;;;;;11.07;6.63;;;;;;;4.20;54.35;100217.28;3365116;29;20037;-76
2021/12/15 06:08:46;;;;;;;11.40;7.18;;;;;;;4.19;54.48;100220.91;3364794;29;20104;-77
2021/12/15 06:10:28;;;;;;;12.07;6.38;;;;;;;4.20;54.51;100219.09;3365261;29;20049;-76
2021/12/15 06:12:09;;;;;;;;;;;;;;;4.29;54.39;100213.81;3365713;29;20465;-74
2021/12/15 06:13:52;;;;;;;10.57;5.90;;;;;;;4.21;54.33;100216.34;3365214;29;20071;-76
2021/12/15 06:15:33;;;;;;;8.77;5.68;;;;;;;4.19;54.31;100213.00;3364703;29;20056;-75
2021/12/15 06:17:14;;;;;;;12.52;5.65;;;;;;;4.18;54.37;100213.13;3365025;29;20504;-74
2021/12/15 06:18:55;;;;;;;9.50;5.28;;;;;;;4.16;54.47;100213.28;3365278;29;20103;-75
2021/12/15 06:20:36;;;;;;;12.15;5.32;;;;;;;4.16;54.55;100213.28;3365393;29;20152;-75
2021/12/15 06:22:19;;;;;;;11.70;5.32;;;;;;;4.17;54.52;100199.09;3365541;29;20513;-76
2021/12/15 06:24:00;;;;;;;8.35;5.25;;;;;;;4.19;54.42;100212.16;3364885;29;20144;-76
2021/12/15 06:25:41;;;;;;;9.25;5.00;;;;;;;4.19;54.52;100201.63;3362390;29;20048;-76
2021/12/15 06:27:28;;;;;;;10.65;5.63;;;;;;;4.19;54.58;100197.16;3372590;29;20044;-76
2021/12/15 06:29:09;;;;;;;7.80;4.60;;;;;;;4.22;54.54;100202.16;3378090;29;20048;-74
2021/12/15 06:30:51;;;;;;;10.48;5.05;;;;;;;4.24;54.53;100205.50;3366789;29;20068;-76
2021/12/15 06:32:32;;;;;;;7.60;4.55;;;;;;;4.23;54.40;100193.25;3376937;29;20083;-77
2021/12/15 06:34:15;;;;;;;9.25;5.25;;;;;;;4.25;54.60;100195.75;3378003;29;20517;-77
2021/12/15 06:35:59;;;;;;;9.50;4.90;;;;;;;4.30;54.44;100198.81;3364589;29;20041;-75
2021/12/15 06:37:40;;;;;;;8.73;5.18;;;;;;;4.30;54.41;100194.38;3364883;29;20052;-74
2021/12/15 06:39:21;;;;;;;11.85;5.32;;;;;;;4.33;54.20;100191.44;3365020;29;20055;-74
2021/12/15 06:41:05;;;;;;;8.95;5.68;;;;;;;4.34;54.44;100201.03;3375542;29;20044;-75
2021/12/15 06:42:46;;;;;;;10.73;4.53;;;;;;;4.33;54.37;100185.34;3367962;29;20041;-76
2021/12/15 06:44:26;;;;;;;8.45;4.60;;;;;;;4.35;54.42;100202.69;3364712;29;20069;-75
2021/12/15 06:46:32;;;;;;;7.45;4.30;;;;;;;4.33;54.30;100195.88;3364483;29;20519;-74
2021/12/15 06:59:45;;;;;;;6.82;4.88;;;;;;;4.26;54.48;100193.00;3363855;29;20064;-75
2021/12/15 07:01:26;;;;;;;8.65;4.30;;;;;;;4.26;54.29;100203.56;3360600;29;20047;-74
2021/12/15 07:03:07;;;;;;;11.60;5.10;;;;;;;4.25;54.38;100196.59;3373454;29;20045;-75
2021/12/15 07:04:48;;;;;;;8.35;4.30;;;;;;;4.23;54.44;100193.25;3366289;29;20056;-75
2021/12/15 07:06:28;;;;;;;11.57;6.03;;;;;;;4.22;54.57;100204.78;3364714;29;20041;-75
2021/12/15 07:08:10;;;;;;;10.45;5.75;;;;;;;4.20;54.61;100196.19;3362966;29;20049;-74
2021/12/15 07:09:51;;;;;;;9.00;4.28;;;;;;;4.22;54.57;100202.16;3360081;29;20041;-75
2021/12/15 07:11:31;;;;;;;12.38;5.78;;;;;;;4.21;54.61;100203.13;3364093;29;20048;-74
2021/12/15 07:13:13;;;;;;;10.40;6.20;;;;;;;4.24;54.51;100200.22;3363627;29;20049;-75
2021/12/15 07:14:54;;;;;;;10.55;6.22;;;;;;;4.24;54.57;100192.31;3364104;29;20073;-74
2021/12/15 07:16:39;;;;;;;10.52;5.97;;;;;;;4.26;54.63;100197.41;3364013;29;20049;-74
2021/12/15 07:18:27;;;;;;;9.82;5.82;;;;;;;4.27;54.40;100199.94;3364757;29;20057;-76
2021/12/15 07:22:16;;;;;;;8.73;4.90;;;;;;;4.30;54.49;100204.91;3364043;29;20041;-78
2021/12/15 07:23:57;;;;;;;7.97;4.55;;;;;;;4.31;54.37;100211.88;3364436;29;20045;-76
2021/12/15 07:25:39;;;;;;;8.82;5.90;;;;;;;4.30;54.33;100204.91;3364620;29;20496;-77
2021/12/15 07:27:20;;;;;;;10.48;5.57;;;;;;;4.30;54.46;100212.84;3363814;29;20633;-73
2021/12/15 07:29:01;;;;;;;10.13;4.90;;;;;;;4.29;54.38;100208.53;3364854;29;20116;-74
2021/12/15 07:30:42;;;;;;;7.72;4.95;;;;;;;4.29;54.40;100203.25;3362871;29;20041;-73
2021/12/15 07:32:23;;;;;;;8.80;5.07;;;;;;;4.31;54.49;100211.03;3347603;29;20074;-74
2021/12/15 07:34:04;;;;;;;8.57;5.30;;;;;;;4.32;54.47;100212.69;3361654;29;20052;-74
2021/12/15 07:35:45;;;;;;;6.63;4.33;;;;;;;4.32;54.40;100210.91;3363725;29;20097;-75
2021/12/15 07:37:26;;;;;;;9.93;4.88;;;;;;;4.32;54.48;100228.53;3363447;29;20093;-77
2021/12/15 07:39:10;;;;;;;7.60;4.65;;;;;;;4.32;54.39;100216.16;3364217;29;20436;-75
2021/12/15 07:40:51;;;;;;;4.95;3.58;;;;;;;4.33;54.24;100222.28;3363573;29;20454;-73
2021/12/15 07:42:42;;;;;;;9.98;4.40;;;;;;;4.34;54.23;100216.03;3364619;29;20041;-76
2021/12/15 07:44:22;;;;;;;8.23;4.88;;;;;;;4.36;54.35;100220.19;3364474;29;20053;-77
2021/12/15 07:46:05;;;;;;;5.65;3.78;;;;;;;4.35;54.31;100220.34;3363786;29;20100;-75
2021/12/15 07:47:46;;;;;;;7.63;4.28;;;;;;;4.37;54.36;100227.13;3364071;29;20101;-76
2021/12/15 07:49:28;;;;;;;7.10;4.20;;;;;;;4.36;54.46;100224.63;3364533;29;20191;-76
2021/12/15 07:51:10;;;;;;;8.30;4.28;;;;;;;4.36;54.28;100222.84;3363987;29;20045;-75
2021/12/15 07:52:51;;;;;;;6.38;4.43;;;;;;;4.35;54.46;100226.44;3364259;29;20129;-75
2021/12/15 07:54:34;;;;;;;7.80;4.27;;;;;;;4.37;54.37;100221.03;3364432;29;20127;-75
2021/12/15 07:56:15;;;;;;;6.45;3.97;;;;;;;4.36;54.48;100224.63;3363961;29;20045;-75
2021/12/15 07:57:56;;;;;;;5.95;4.35;;;;;;;4.37;54.36;100224.50;3362422;29;20497;-76
2021/12/15 07:59:37;;;;;;;6.78;4.38;;;;;;;4.36;54.38;100209.66;3363524;29;20071;-76
2021/12/15 08:01:20;;;;;;;6.15;3.85;;;;;;;4.37;54.36;100210.47;3363613;29;20501;-75
2021/12/15 08:03:00;;;;;;;7.45;4.15;;;;;;;4.36;54.37;100212.28;3363295;29;20041;-74
2021/12/15 08:04:42;;;;;;;7.15;4.18;;;;;;;4.36;54.40;100208.78;3363880;29;20045;-76
2021/12/15 08:06:24;;;;;;;7.70;4.53;;;;;;;4.37;54.28;100216.56;3363941;29;20053;-76
2021/12/15 08:08:05;;;;;;;7.30;4.18;;;;;;;4.39;54.10;100219.09;3363469;29;20045;-74
2021/12/15 08:09:49;;;;;;;7.00;4.28;;;;;;;4.40;54.38;100219.91;3364505;29;20131;-77
2021/12/15 08:11:30;;;;;;;7.82;4.43;;;;;;;4.43;54.46;100209.06;3362611;29;20061;-76
2021/12/15 08:13:11;;;;;;;6.97;3.65;;;;;;;4.41;54.36;100211.84;3363944;29;20588;-76
2021/12/15 08:14:52;;;;;;;7.75;5.07;;;;;;;4.43;54.40;100204.63;3362930;29;20188;-76
2021/12/15 08:16:33;;;;;;;5.57;3.78;;;;;;;4.43;54.21;100201.97;3363831;29;20627;-75
2021/12/15 08:18:13;;;;;;;6.70;4.40;;;;;;;4.44;54.25;100201.03;3362495;29;20049;-76
2021/12/15 08:19:54;;;;;;;8.70;4.00;;;;;;;4.45;54.38;100207.13;3363348;29;20084;-76
2021/12/15 08:21:35;;;;;;;6.53;4.40;;;;;;;4.45;54.25;100207.94;3363336;29;20045;-75
2021/12/15 08:23:16;;;;;;;6.40;4.00;;;;;;;4.51;54.28;100217.09;3363443;29;20048;-75
2021/12/15 08:24:57;;;;;;;5.85;4.18;;;;;;;4.53;54.20;100209.88;3363316;29;20043;-77
2021/12/15 08:26:38;;;;;;;7.10;4.50;;;;;;;4.54;54.21;100200.97;3362914;29;20049;-77
2021/12/15 08:28:19;;;;;;;9.65;5.63;;;;;;;4.56;54.24;100196.38;3363609;29;20052;-76
2021/12/15 08:29:59;;;;;;;6.88;4.38;;;;;;;4.58;54.25;100202.38;3362440;29;20052;-76
2021/12/15 08:31:41;;;;;;;6.57;4.38;;;;;;;4.54;54.25;100196.56;3361841;29;20041;-77
2021/12/15 08:33:23;;;;;;;7.82;4.72;;;;;;;4.62;54.24;100202.91;3362585;29;20049;-77
2021/12/15 08:35:05;;;;;;;6.43;3.80;;;;;;;4.64;53.97;100195.69;3363133;29;20044;-79
2021/12/15 08:36:49;;;;;;;10.07;5.38;;;;;;;4.66;54.07;100199.84;3363727;29;20040;-76
2021/12/15 08:38:33;;;;;;;8.07;5.30;;;;;;;4.67;54.28;100201.50;3362357;29;20060;-76